Time;durP1;ratioP1;P1;durP2;ratioP2;P2;SDS_P1;SDS_P2;PMS_P1;PMS_P2;Temp;Humidity;BMP_temperature;BMP_pressure;BME280_temperature;BME280_humidity;BME280_pressure;Samples;Min_cycle;Max_cycle;Signal;HPM_P1;HPM_P2
2022/01/26 00:00:54;;;;;;;5.93;1.27;;;26.00;99.90;;;;;;5064584;28;20025;-77
2022/01/26 00:06:09;;;;;;;4.57;1.23;;;26.10;99.90;;;;;;5062227;28;20112;-76
2022/01/26 00:08:38;;;;;;;4.22;0.63;;;26.20;99.90;;;;;;5061800;28;20035;-77
2022/01/26 00:11:07;;;;;;;5.35;1.48;;;26.10;99.90;;;;;;5058004;28;20025;-77
2022/01/26 00:13:34;;;;;;;2.45;0.90;;;26.20;99.90;;;;;;5058205;28;20513;-77
2022/01/26 00:16:05;;;;;;;4.32;1.30;;;26.40;99.90;;;;;;5060121;28;20114;-76
2022/01/26 00:18:36;;;;;;;3.42;0.85;;;26.80;99.90;;;;;;5066456;28;20017;-78
2022/01/26 00:21:09;;;;;;;4.60;1.75;;;27.30;99.90;;;;;;5057745;28;20058;-79
2022/01/26 00:24:03;;;;;;;3.28;0.95;;;28.10;98.60;;;;;;5066057;28;20031;-78
2022/01/26 00:39:36;;;;;;;2.22;1.00;;;30.90;94.50;;;;;;5058482;28;20358;-78
2022/01/26 00:42:03;;;;;;;4.10;1.27;;;30.70;95.40;;;;;;5067285;28;21636;-78
2022/01/26 00:44:39;;;;;;;6.72;1.52;;;30.70;94.40;;;;;;5068473;28;20051;-75
2022/01/26 00:47:07;;;;;;;5.55;1.30;;;30.50;93.30;;;;;;5058607;28;20044;-76
2022/01/26 00:49:34;;;;;;;2.17;1.00;;;30.40;95.70;;;;;;5065732;28;20025;-75
2022/01/26 00:52:05;;;;;;;3.85;2.05;;;30.60;94.20;;;;;;5057089;28;20032;-75
2022/01/26 00:54:33;;;;;;;1.20;0.75;;;31.00;94.20;;;;;;5069369;28;20024;-75
2022/01/26 00:57:00;;;;;;;3.17;1.00;;;31.40;95.00;;;;;;5063004;28;20159;-75
2022/01/26 00:59:28;;;;;;;3.95;1.13;;;31.70;94.80;;;;;;5067957;28;20040;-75
2022/01/26 01:01:56;;;;;;;4.53;1.20;;;31.90;93.10;;;;;;5064416;28;20029;-77
2022/01/26 01:04:24;;;;;;;2.80;1.00;;;32.30;92.20;;;;;;5064332;28;20029;-75
2022/01/26 01:06:57;;;;;;;2.53;0.95;;;32.50;93.40;;;;;;5059945;28;20122;-74
2022/01/26 01:09:31;;;;;;;2.97;1.10;;;32.80;93.20;;;;;;5064438;28;20033;-77
2022/01/26 01:11:59;;;;;;;4.43;1.30;;;33.10;92.10;;;;;;5068398;28;20032;-76
2022/01/26 01:14:26;;;;;;;2.03;0.88;;;32.90;90.80;;;;;;5065427;28;20035;-75
2022/01/26 01:16:58;;;;;;;3.65;1.25;;;32.70;89.10;;;;;;5063321;28;20028;-75
2022/01/26 01:19:34;;;;;;;3.13;1.23;;;32.00;90.40;;;;;;5062146;28;20029;-75
2022/01/26 01:22:24;;;;;;;2.35;0.93;;;32.00;91.30;;;;;;5041880;28;20037;-74
2022/01/26 01:27:54;;;;;;;;;;;31.40;91.10;;;;;;5060401;28;20454;-75
2022/01/26 01:30:33;;;;;;;3.10;0.82;;;31.00;91.20;;;;;;5068826;28;19924;-75
2022/01/26 01:33:09;;;;;;;4.90;1.10;;;30.80;91.60;;;;;;5065450;28;20064;-75
2022/01/26 01:35:39;;;;;;;3.78;1.52;;;30.60;91.30;;;;;;5071766;28;20028;-75
2022/01/26 01:38:13;;;;;;;2.15;1.02;;;30.30;91.50;;;;;;5056705;28;20391;-76
2022/01/26 01:40:44;;;;;;;1.52;0.88;;;30.00;91.70;;;;;;5062017;28;20082;-75
2022/01/26 01:43:12;;;;;;;3.45;1.27;;;30.10;91.60;;;;;;5054674;28;20111;-75
2022/01/26 01:45:44;;;;;;;5.70;2.25;;;30.00;91.00;;;;;;5053554;28;20054;-77
2022/01/26 01:48:13;;;;;;;3.40;1.52;;;30.00;91.70;;;;;;5050636;28;20086;-77
2022/01/26 01:50:42;;;;;;;5.15;0.98;;;30.20;91.60;;;;;;5050855;28;20033;-75
2022/01/26 01:53:11;;;;;;;3.92;1.20;;;30.20;90.70;;;;;;5051310;28;20033;-75
2022/01/26 01:55:41;;;;;;;1.98;1.00;;;30.20;91.90;;;;;;5060415;28;20040;-75
2022/01/26 01:58:10;;;;;;;2.25;0.90;;;30.40;91.00;;;;;;5065565;28;20028;-78
2022/01/26 02:00:38;;;;;;;6.93;1.10;;;31.10;90.50;;;;;;5066250;28;20467;-75
2022/01/26 02:03:05;;;;;;;3.47;1.20;;;31.20;88.00;;;;;;5058797;28;20123;-76
2022/01/26 02:05:33;;;;;;;2.55;1.00;;;31.70;88.20;;;;;;5069148;28;20037;-78
2022/01/26 02:08:00;;;;;;;2.78;1.00;;;31.60;88.20;;;;;;5060601;28;20041;-74
2022/01/26 02:10:30;;;;;;;2.30;1.00;;;31.20;90.40;;;;;;5061353;28;20032;-79
2022/01/26 02:13:02;;;;;;;1.95;1.00;;;30.90;89.10;;;;;;5062427;28;20035;-75
2022/01/26 02:15:42;;;;;;;3.45;1.40;;;30.50;89.70;;;;;;5066585;28;20147;-77
2022/01/26 02:51:23;;;;;;;4.28;0.80;;;30.30;91.00;;;;;;5061096;28;19923;-76
2022/01/26 02:59:23;;;;;;;2.90;0.70;;;31.60;88.80;;;;;;5058785;28;20069;-78
2022/01/26 03:01:58;;;;;;;1.90;0.80;;;32.20;88.50;;;;;;5065998;28;20071;-78
2022/01/26 03:07:01;;;;;;;4.22;0.65;;;32.60;88.30;;;;;;5057783;28;20029;-76
2022/01/26 03:09:34;;;;;;;5.00;1.02;;;33.20;86.40;;;;;;5059437;28;20185;-76
2022/01/26 03:12:04;;;;;;;0.85;0.50;;;33.40;86.50;;;;;;5049391;28;20522;-74
2022/01/26 03:14:56;;;;;;;2.38;0.57;;;33.20;86.90;;;;;;5064769;28;20025;-78
2022/01/26 03:18:19;;;;;;;0.52;0.32;;;33.30;87.10;;;;;;5057765;28;20036;-75
2022/01/26 03:20:11;;;;;;;1.20;0.77;;;33.50;86.40;;;;;;5045787;28;20444;-74
2022/01/26 03:28:38;;;;;;;1.67;0.50;;;33.10;86.30;;;;;;5052816;28;20075;-75
2022/01/26 03:36:20;;;;;;;3.22;0.50;;;31.50;89.00;;;;;;5064747;28;20120;-74
2022/01/26 03:38:56;;;;;;;3.10;0.95;;;31.80;88.70;;;;;;5054498;28;20079;-79
2022/01/26 03:41:38;;;;;;;4.05;1.17;;;31.80;87.90;;;;;;5054635;28;20095;-78
2022/01/26 03:44:06;;;;;;;2.15;0.32;;;31.50;88.10;;;;;;5054464;28;20068;-77
2022/01/26 03:46:34;;;;;;;2.65;0.60;;;31.20;88.70;;;;;;5055643;28;20048;-76
2022/01/26 03:49:02;;;;;;;2.95;0.60;;;31.00;88.00;;;;;;5069472;28;20059;-76
2022/01/26 03:51:29;;;;;;;1.65;0.40;;;30.80;89.30;;;;;;5055767;28;20032;-76
2022/01/26 03:53:57;;;;;;;4.85;0.70;;;30.50;89.50;;;;;;5052139;28;20033;-76
2022/01/26 03:56:25;;;;;;;4.97;0.50;;;30.30;90.20;;;;;;5052479;28;20029;-78
2022/01/26 03:58:52;;;;;;;2.80;1.13;;;30.10;90.40;;;;;;5053444;28;20021;-74
2022/01/26 04:01:20;;;;;;;3.15;0.57;;;30.30;90.90;;;;;;5053676;28;20044;-73
2022/01/26 04:03:47;;;;;;;1.23;0.30;;;31.00;90.40;;;;;;5056545;28;20408;-75
2022/01/26 04:06:16;;;;;;;0.60;0.50;;;30.90;88.80;;;;;;5061842;28;20044;-75
2022/01/26 04:08:45;;;;;;;3.38;0.63;;;30.70;89.00;;;;;;5065317;28;20028;-75
2022/01/26 04:13:58;;;;;;;0.85;0.32;;;31.60;88.10;;;;;;5066146;28;20480;-83
2022/01/26 04:16:25;;;;;;;0.80;0.30;;;31.20;88.60;;;;;;5056293;28;20107;-78
2022/01/26 04:18:56;;;;;;;0.60;0.38;;;30.70;89.30;;;;;;5065675;28;20021;-77
2022/01/26 04:24:11;;;;;;;1.27;0.68;;;30.10;90.70;;;;;;5057638;28;20422;-78
2022/01/26 04:29:33;;;;;;;3.65;0.50;;;30.50;90.00;;;;;;5040714;28;20444;-80
2022/01/26 04:32:04;;;;;;;1.63;0.40;;;30.70;90.20;;;;;;5051416;28;20048;-76
2022/01/26 04:34:33;;;;;;;2.85;1.08;;;30.90;89.00;;;;;;5055287;28;20036;-80
2022/01/26 04:39:43;;;;;;;1.40;0.35;;;31.40;88.50;;;;;;5062139;28;20100;-81
2022/01/26 04:42:20;;;;;;;1.35;0.45;;;31.50;88.00;;;;;;5049900;28;20045;-80
2022/01/26 04:44:55;;;;;;;0.65;0.20;;;31.20;88.50;;;;;;5069942;28;20383;-76
2022/01/26 04:47:22;;;;;;;2.55;0.38;;;30.60;88.90;;;;;;5055160;28;20044;-78
2022/01/26 04:49:49;;;;;;;2.47;0.60;;;30.80;88.90;;;;;;5068391;28;20516;-80
2022/01/26 04:52:17;;;;;;;1.88;0.30;;;31.10;88.50;;;;;;5065947;28;20032;-79
2022/01/26 04:54:44;;;;;;;1.85;0.80;;;31.10;88.20;;;;;;5069267;28;20122;-81
2022/01/26 04:57:11;;;;;;;1.52;0.60;;;30.70;88.40;;;;;;5055876;28;20038;-82
2022/01/26 04:59:39;;;;;;;2.30;0.57;;;30.40;88.90;;;;;;5069098;28;20107;-78
2022/01/26 05:02:06;;;;;;;3.17;0.57;;;30.40;88.70;;;;;;5057411;28;20090;-77
2022/01/26 05:04:33;;;;;;;1.60;0.40;;;30.40;89.30;;;;;;5056425;28;20049;-77
2022/01/26 05:07:01;;;;;;;1.13;0.22;;;30.60;88.50;;;;;;5068520;28;21213;-84
2022/01/26 05:09:28;;;;;;;1.88;0.60;;;30.60;88.60;;;;;;5068907;28;20116;-80
2022/01/26 05:11:56;;;;;;;0.90;0.40;;;30.70;88.40;;;;;;5063096;28;20475;-79
2022/01/26 05:14:24;;;;;;;2.13;0.30;;;30.80;89.80;;;;;;5060458;28;20024;-79
2022/01/26 05:16:51;;;;;;;2.13;0.38;;;30.90;88.70;;;;;;5058244;28;20100;-76
2022/01/26 05:19:18;;;;;;;5.03;1.05;;;30.40;88.70;;;;;;5066518;28;20054;-76
2022/01/26 05:21:46;;;;;;;0.90;0.22;;;29.90;89.50;;;;;;5053078;28;20459;-77
2022/01/26 05:24:13;;;;;;;2.35;0.55;;;29.40;90.10;;;;;;5057143;28;20056;-75
2022/01/26 05:26:41;;;;;;;3.03;0.30;;;29.30;90.20;;;;;;5049998;28;20055;-79
2022/01/26 05:29:09;;;;;;;2.13;0.40;;;29.70;90.20;;;;;;5064033;28;20039;-82
2022/01/26 05:31:36;;;;;;;2.38;0.40;;;29.90;89.70;;;;;;5068369;28;20119;-83
2022/01/26 05:34:03;;;;;;;1.95;0.38;;;30.10;89.30;;;;;;5057262;28;20444;-80
2022/01/26 05:36:31;;;;;;;1.60;0.30;;;30.10;88.70;;;;;;5057416;28;20032;-81
2022/01/26 05:38:58;;;;;;;1.27;0.40;;;30.10;89.50;;;;;;5063834;28;20051;-80
2022/01/26 05:41:25;;;;;;;1.95;0.95;;;30.30;89.00;;;;;;5069388;28;20048;-78
2022/01/26 05:43:53;;;;;;;1.75;0.60;;;30.30;89.60;;;;;;5062427;28;20060;-80
2022/01/26 05:46:41;;;;;;;1.00;0.40;;;30.30;89.20;;;;;;5065572;28;20072;-77
2022/01/26 05:49:10;;;;;;;2.10;0.40;;;30.30;89.10;;;;;;5066769;28;20033;-82
2022/01/26 05:51:37;;;;;;;1.42;0.60;;;30.20;88.30;;;;;;5066583;28;20025;-78
2022/01/26 05:54:05;;;;;;;2.45;0.50;;;30.10;88.80;;;;;;5056260;28;20040;-78
2022/01/26 05:56:33;;;;;;;3.08;0.68;;;30.10;88.70;;;;;;5051382;28;20383;-78
2022/01/26 05:59:00;;;;;;;2.40;0.40;;;29.50;88.80;;;;;;5057451;28;20060;-79
2022/01/26 06:01:28;;;;;;;6.13;0.52;;;29.10;89.80;;;;;;5059434;28;20025;-78
2022/01/26 06:03:55;;;;;;;0.45;0.20;;;28.60;90.50;;;;;;5059499;28;20024;-79
2022/01/26 06:06:22;;;;;;;2.47;0.65;;;28.60;90.60;;;;;;5069954;28;20032;-77
2022/01/26 06:08:50;;;;;;;4.00;0.40;;;28.70;90.40;;;;;;5061985;28;20063;-79
2022/01/26 06:11:17;;;;;;;2.55;0.32;;;28.70;90.40;;;;;;5060909;28;20025;-80
2022/01/26 06:13:44;;;;;;;0.73;0.45;;;28.50;90.50;;;;;;5057746;28;20028;-81
2022/01/26 06:16:13;;;;;;;2.03;0.50;;;28.20;91.10;;;;;;5069691;28;20033;-77
2022/01/26 06:18:43;;;;;;;1.65;0.30;;;28.40;90.70;;;;;;5067570;28;20090;-79
2022/01/26 06:21:11;;;;;;;2.50;0.73;;;28.30;90.30;;;;;;5069128;28;20032;-82
2022/01/26 06:23:38;;;;;;;1.15;0.20;;;28.10;90.90;;;;;;5058935;28;20122;-75
2022/01/26 06:26:07;;;;;;;2.08;0.30;;;28.20;90.80;;;;;;5066198;28;20036;-78
2022/01/26 06:28:35;;;;;;;0.70;0.30;;;28.40;90.70;;;;;;5056696;28;20029;-76
2022/01/26 06:31:09;;;;;;;1.30;0.30;;;28.40;90.70;;;;;;5052559;28;20056;-82
2022/01/26 06:33:40;;;;;;;1.38;0.40;;;28.40;90.80;;;;;;5067335;28;20067;-77
2022/01/26 06:36:12;;;;;;;1.20;0.30;;;28.40;90.70;;;;;;5062219;28;20043;-83
2022/01/26 06:38:44;;;;;;;2.05;0.50;;;28.20;90.70;;;;;;5067358;28;20029;-83
2022/01/26 06:41:13;;;;;;;2.42;0.30;;;28.40;90.80;;;;;;5073979;28;20048;-79
2022/01/26 06:43:50;;;;;;;2.30;0.30;;;28.60;90.60;;;;;;5056063;28;20025;-81
2022/01/26 06:46:25;;;;;;;1.10;0.57;;;28.40;90.40;;;;;;5053640;28;20146;-75
2022/01/26 06:49:52;;;;;;;1.08;0.38;;;28.30;90.40;;;;;;5063226;28;20109;-76
2022/01/26 06:51:48;;;;;;;2.08;0.20;;;28.30;90.60;;;;;;5062170;28;20047;-82
2022/01/26 06:54:16;;;;;;;2.78;0.35;;;28.30;90.40;;;;;;5061585;28;20599;-78
2022/01/26 06:56:45;;;;;;;0.82;0.70;;;28.30;90.60;;;;;;5069063;28;20032;-76
2022/01/26 06:59:13;;;;;;;3.63;0.40;;;28.30;90.90;;;;;;5069658;28;20094;-77
2022/01/26 07:01:41;;;;;;;4.57;0.40;;;28.20;90.40;;;;;;5068463;28;20098;-80
2022/01/26 07:04:09;;;;;;;1.00;0.45;;;28.00;90.50;;;;;;5067060;28;20359;-77
2022/01/26 07:06:36;;;;;;;1.58;0.35;;;27.70;90.90;;;;;;5063232;28;20072;-81
2022/01/26 07:09:04;;;;;;;3.83;0.82;;;27.50;91.00;;;;;;5063817;28;20021;-79
2022/01/26 07:11:31;;;;;;;0.90;0.75;;;27.20;91.40;;;;;;5062993;28;21987;-79
2022/01/26 07:14:00;;;;;;;2.90;0.30;;;27.20;91.40;;;;;;5061217;28;20328;-81
2022/01/26 07:21:59;;;;;;;1.25;0.25;;;27.50;91.70;;;;;;5064604;28;20429;-76
2022/01/26 07:24:26;;;;;;;0.32;0.10;;;27.60;91.10;;;;;;5066808;28;20111;-75
2022/01/26 07:26:54;;;;;;;1.67;0.30;;;27.50;91.10;;;;;;5068016;28;20109;-80
2022/01/26 07:29:23;;;;;;;0.75;0.22;;;27.50;91.20;;;;;;5066289;28;20032;-78
2022/01/26 07:31:52;;;;;;;3.70;0.68;;;27.40;91.20;;;;;;5072170;28;20028;-76
2022/01/26 07:34:22;;;;;;;2.15;0.30;;;27.40;91.20;;;;;;5064486;28;20353;-82
2022/01/26 07:36:52;;;;;;;1.33;0.30;;;27.30;91.40;;;;;;5057498;28;20437;-78
2022/01/26 07:39:30;;;;;;;2.00;0.40;;;27.30;91.30;;;;;;5060770;28;20427;-76
2022/01/26 07:41:59;;;;;;;2.63;0.45;;;27.30;91.30;;;;;;5055260;28;20056;-78
2022/01/26 07:44:27;;;;;;;2.42;0.30;;;27.10;91.40;;;;;;5071685;28;20098;-82
2022/01/26 07:46:54;;;;;;;1.73;1.15;;;27.00;91.50;;;;;;5058011;28;20052;-77
2022/01/26 07:49:22;;;;;;;3.17;0.70;;;27.00;91.50;;;;;;5055632;28;20381;-77
2022/01/26 07:51:51;;;;;;;2.20;0.55;;;26.90;91.50;;;;;;5062159;28;20084;-80
2022/01/26 07:54:20;;;;;;;1.77;0.30;;;26.80;91.80;;;;;;5068783;28;20024;-79
2022/01/26 07:56:48;;;;;;;3.30;0.77;;;26.90;91.70;;;;;;5070814;28;20110;-78
2022/01/26 07:59:15;;;;;;;0.82;0.32;;;26.90;91.60;;;;;;5062961;28;20040;-78
2022/01/26 08:01:43;;;;;;;3.15;0.47;;;26.80;91.60;;;;;;5060167;28;20055;-75
2022/01/26 08:04:10;;;;;;;3.63;0.43;;;26.50;92.00;;;;;;5063848;28;20024;-81
2022/01/26 08:06:38;;;;;;;3.95;1.38;;;26.30;92.20;;;;;;5070583;28;20040;-79
2022/01/26 08:09:05;;;;;;;2.80;0.93;;;26.20;92.40;;;;;;5053532;28;20037;-77
2022/01/26 08:11:32;;;;;;;7.80;2.20;;;26.00;92.40;;;;;;5049818;28;20039;-77
2022/01/26 08:14:00;;;;;;;4.28;1.38;;;25.90;92.70;;;;;;5054583;28;20027;-77
2022/01/26 08:16:27;;;;;;;7.90;2.67;;;25.80;92.90;;;;;;5051637;28;20573;-77
2022/01/26 08:18:55;;;;;;;1.73;0.73;;;26.00;92.80;;;;;;5053309;28;20158;-76
2022/01/26 08:21:22;;;;;;;2.63;1.48;;;26.00;92.80;;;;;;5053734;28;20098;-77
2022/01/26 08:23:49;;;;;;;1.40;0.70;;;26.20;92.60;;;;;;5052386;28;20021;-76
2022/01/26 08:26:24;;;;;;;2.50;0.30;;;25.90;92.70;;;;;;5050583;28;20032;-77
2022/01/26 08:28:55;;;;;;;3.28;0.80;;;25.90;92.60;;;;;;5053594;28;20168;-75
2022/01/26 08:31:25;;;;;;;8.40;3.15;;;25.80;92.80;;;;;;5064787;28;20099;-75
2022/01/26 08:33:52;;;;;;;1.50;0.57;;;25.80;92.90;;;;;;5050270;28;20391;-77
2022/01/26 08:36:20;;;;;;;3.05;1.08;;;25.50;93.10;;;;;;5057477;28;20024;-75
2022/01/26 08:38:47;;;;;;;9.57;4.57;;;25.30;93.40;;;;;;5054229;28;20428;-76
2022/01/26 08:41:14;;;;;;;10.07;5.35;;;25.20;93.70;;;;;;5055563;28;20050;-76
2022/01/26 08:43:42;;;;;;;19.75;9.23;;;25.10;93.70;;;;;;5062092;28;20035;-76
2022/01/26 08:46:09;;;;;;;19.98;10.30;;;25.00;93.90;;;;;;5055123;28;20048;-78
2022/01/26 08:48:36;;;;;;;22.92;12.90;;;25.00;94.00;;;;;;5051758;28;20456;-81
2022/01/26 08:51:07;;;;;;;9.38;6.57;;;24.90;94.10;;;;;;5059548;28;20044;-80
2022/01/26 08:53:34;;;;;;;6.43;3.45;;;24.80;94.20;;;;;;5057221;28;20359;-80
2022/01/26 08:56:01;;;;;;;3.20;0.75;;;24.70;94.40;;;;;;5059565;28;20039;-79
2022/01/26 08:58:29;;;;;;;1.77;0.98;;;24.70;94.50;;;;;;5057522;28;20141;-77
2022/01/26 09:00:56;;;;;;;5.80;0.82;;;24.60;94.60;;;;;;5053520;28;20021;-79
2022/01/26 09:03:23;;;;;;;1.58;0.70;;;24.50;94.90;;;;;;5053968;28;20040;-79
2022/01/26 09:05:51;;;;;;;2.80;0.52;;;24.40;95.00;;;;;;5059126;28;20033;-77
2022/01/26 09:08:19;;;;;;;2.83;0.65;;;24.30;95.30;;;;;;5055948;28;20032;-78
2022/01/26 09:10:46;;;;;;;1.15;0.30;;;24.20;95.20;;;;;;5052732;28;20387;-77
2022/01/26 09:13:14;;;;;;;0.98;0.65;;;24.10;95.40;;;;;;5054918;28;20084;-77
2022/01/26 09:15:42;;;;;;;3.15;0.88;;;24.10;95.70;;;;;;5054132;28;20033;-75
2022/01/26 09:18:17;;;;;;;2.80;0.30;;;24.20;95.60;;;;;;5060855;28;20181;-78
2022/01/26 09:20:44;;;;;;;6.30;0.63;;;24.20;95.30;;;;;;5054471;28;20032;-76
2022/01/26 09:23:12;;;;;;;2.55;0.30;;;24.00;95.70;;;;;;5059472;28;20035;-77
2022/01/26 09:25:39;;;;;;;5.38;0.70;;;24.00;95.90;;;;;;5053970;28;20027;-77
2022/01/26 09:28:06;;;;;;;2.13;0.40;;;24.00;96.00;;;;;;5052557;28;20020;-77
2022/01/26 09:30:34;;;;;;;8.02;0.70;;;24.10;95.70;;;;;;5052714;28;20069;-79
2022/01/26 09:33:01;;;;;;;3.50;0.40;;;23.90;95.80;;;;;;5056015;28;20041;-76
2022/01/26 09:35:28;;;;;;;6.07;0.82;;;23.90;95.90;;;;;;5051200;28;20020;-76
2022/01/26 09:37:56;;;;;;;2.88;0.63;;;23.80;96.30;;;;;;5055773;28;20111;-77
2022/01/26 09:40:24;;;;;;;2.55;0.40;;;23.80;96.30;;;;;;5051137;28;20040;-77
2022/01/26 09:42:52;;;;;;;1.70;0.40;;;23.70;96.30;;;;;;5051782;28;20029;-78
2022/01/26 09:45:19;;;;;;;1.52;0.47;;;23.80;96.40;;;;;;5051362;28;20032;-78
2022/01/26 09:47:47;;;;;;;2.78;0.80;;;23.70;96.30;;;;;;5050816;28;20040;-78
2022/01/26 09:50:14;;;;;;;1.33;0.40;;;23.70;96.50;;;;;;5054483;28;20685;-77
2022/01/26 09:52:47;;;;;;;2.03;0.43;;;23.70;96.50;;;;;;5050501;28;20372;-79
2022/01/26 09:55:16;;;;;;;5.20;0.88;;;23.70;96.40;;;;;;5056074;28;20036;-76
2022/01/26 09:57:44;;;;;;;5.28;0.52;;;23.70;96.60;;;;;;5061398;28;20041;-77
2022/01/26 10:00:13;;;;;;;1.92;0.52;;;23.70;96.60;;;;;;5054212;28;20021;-75
2022/01/26 10:02:43;;;;;;;3.78;0.50;;;23.70;96.50;;;;;;5050285;28;20021;-76
2022/01/26 10:05:17;;;;;;;1.30;0.40;;;23.60;96.60;;;;;;5059568;28;20108;-75
2022/01/26 10:08:27;;;;;;;3.40;0.50;;;23.70;96.60;;;;;;5059992;28;20033;-76
2022/01/26 10:19:07;;;;;;;2.92;0.45;;;23.30;97.20;;;;;;5055837;28;20166;-78
2022/01/26 10:21:49;;;;;;;1.38;0.30;;;23.30;97.10;;;;;;5066922;28;20024;-76
2022/01/26 10:24:20;;;;;;;0.75;0.30;;;23.20;97.20;;;;;;5055791;28;20037;-78
2022/01/26 10:26:49;;;;;;;0.60;0.30;;;23.30;97.10;;;;;;5055711;28;20690;-77
2022/01/26 10:29:17;;;;;;;0.93;0.28;;;23.20;97.30;;;;;;5069808;28;20028;-77
2022/01/26 10:31:45;;;;;;;1.02;0.40;;;23.20;97.30;;;;;;5063971;28;20043;-77
2022/01/26 10:34:14;;;;;;;3.92;0.57;;;23.10;97.80;;;;;;5059991;28;20029;-79
2022/01/26 10:36:42;;;;;;;4.15;0.60;;;23.10;97.80;;;;;;5055577;28;20032;-77
2022/01/26 10:39:28;;;;;;;5.85;0.75;;;23.00;97.90;;;;;;5069793;28;20356;-78
2022/01/26 10:42:00;;;;;;;4.28;0.73;;;22.90;98.00;;;;;;5062788;28;20044;-75
2022/01/26 10:45:05;;;;;;;2.10;0.60;;;22.90;98.10;;;;;;5055420;28;20094;-79
2022/01/26 10:47:35;;;;;;;2.90;0.80;;;22.80;98.30;;;;;;5053351;28;20183;-80
2022/01/26 10:50:47;;;;;;;0.65;0.32;;;22.80;98.30;;;;;;5063123;28;20025;-79
2022/01/26 10:53:17;;;;;;;0.73;0.20;;;22.70;98.40;;;;;;5065867;28;20028;-79
2022/01/26 10:55:45;;;;;;;3.60;1.30;;;22.70;98.60;;;;;;5066969;28;20020;-76
2022/01/26 10:58:16;;;;;;;3.05;0.60;;;22.70;98.70;;;;;;5059262;28;20029;-79
2022/01/26 11:00:44;;;;;;;1.80;0.50;;;22.60;98.80;;;;;;5055224;28;20037;-78
2022/01/26 11:03:12;;;;;;;0.52;0.20;;;22.70;98.80;;;;;;5057902;28;20036;-77
2022/01/26 11:05:39;;;;;;;0.82;0.75;;;22.70;98.80;;;;;;5074435;28;20556;-80
2022/01/26 11:08:09;;;;;;;4.03;0.30;;;22.70;98.80;;;;;;5063586;28;20058;-79
2022/01/26 11:10:39;;;;;;;4.43;0.98;;;22.70;98.80;;;;;;5060298;28;20029;-80
2022/01/26 11:13:07;;;;;;;1.23;0.30;;;22.70;98.80;;;;;;5063149;28;20024;-79
2022/01/26 11:15:35;;;;;;;4.72;0.32;;;22.70;98.90;;;;;;5060341;28;20122;-77
2022/01/26 11:18:12;;;;;;;4.07;0.40;;;22.60;98.90;;;;;;5062725;28;20116;-76
2022/01/26 11:20:49;;;;;;;2.97;0.40;;;22.60;99.00;;;;;;5073573;28;20542;-79
2022/01/26 11:23:32;;;;;;;3.55;0.60;;;22.60;99.00;;;;;;5072978;28;20020;-78
2022/01/26 11:25:59;;;;;;;0.93;0.30;;;22.70;99.00;;;;;;5071844;28;20040;-76
2022/01/26 11:28:28;;;;;;;1.30;0.50;;;22.70;99.10;;;;;;5061736;28;20032;-79
2022/01/26 11:31:02;;;;;;;2.35;0.52;;;22.70;99.10;;;;;;5054662;28;20020;-77
2022/01/26 11:33:33;;;;;;;1.42;0.47;;;22.60;99.10;;;;;;5063218;28;20348;-77
2022/01/26 11:36:02;;;;;;;1.63;1.02;;;22.60;99.30;;;;;;5057399;28;20036;-77
2022/01/26 11:47:10;;;;;;;2.58;0.90;;;22.50;99.70;;;;;;5063145;28;20058;-77
2022/01/26 11:49:43;;;;;;;1.25;0.68;;;22.50;99.60;;;;;;5067562;28;20104;-77
2022/01/26 11:52:22;;;;;;;3.13;0.77;;;22.40;99.60;;;;;;5069814;28;20032;-77
2022/01/26 11:54:53;;;;;;;1.95;0.57;;;22.40;99.90;;;;;;5052793;28;20056;-77
2022/01/26 11:57:39;;;;;;;1.17;0.93;;;22.40;99.80;;;;;;5060638;28;20399;-78
2022/01/26 12:00:11;;;;;;;1.75;0.32;;;22.30;99.90;;;;;;5067365;28;20039;-78
2022/01/26 12:05:20;;;;;;;2.85;0.40;;;22.30;99.90;;;;;;5067191;28;20017;-79
2022/01/26 12:07:56;;;;;;;3.40;0.57;;;22.30;99.90;;;;;;5060106;28;20040;-77
2022/01/26 12:10:29;;;;;;;4.03;0.85;;;22.30;99.90;;;;;;5066627;28;20055;-77
2022/01/26 12:13:08;;;;;;;5.60;0.60;;;22.30;99.90;;;;;;5068336;28;20025;-76
2022/01/26 12:18:40;;;;;;;2.35;0.50;;;22.30;99.90;;;;;;5055269;28;20051;-75
2022/01/26 12:35:58;;;;;;;2.35;0.95;;;22.40;99.90;;;;;;5073245;28;20058;-81
2022/01/26 12:38:42;;;;;;;3.58;0.30;;;22.40;99.90;;;;;;5065085;28;20032;-76
2022/01/26 12:41:32;;;;;;;2.28;1.42;;;22.30;99.90;;;;;;5065009;28;20087;-79
2022/01/26 12:44:13;;;;;;;1.40;0.60;;;22.30;99.90;;;;;;5062146;28;20029;-75
2022/01/26 12:46:41;;;;;;;8.25;3.58;;;22.40;99.90;;;;;;5065259;28;20036;-79
2022/01/26 12:49:13;;;;;;;3.53;1.42;;;22.30;99.90;;;;;;5065849;28;20036;-77
2022/01/26 12:51:59;;;;;;;3.58;0.73;;;22.40;99.90;;;;;;5064385;28;20053;-79
2022/01/26 12:54:26;;;;;;;3.47;0.60;;;22.40;99.90;;;;;;5067604;28;20031;-80
2022/01/26 12:57:06;;;;;;;2.15;0.43;;;22.40;99.90;;;;;;5069313;28;20023;-79
2022/01/26 12:59:33;;;;;;;2.50;1.00;;;22.40;99.90;;;;;;5059770;28;20035;-79
2022/01/26 13:02:01;;;;;;;3.30;0.50;;;22.50;99.90;;;;;;5053960;28;20056;-79
2022/01/26 13:04:28;;;;;;;2.08;0.55;;;22.50;99.90;;;;;;5058973;28;20028;-79
2022/01/26 13:06:55;;;;;;;6.05;0.90;;;22.50;99.90;;;;;;5056983;28;20082;-79
2022/01/26 13:09:29;;;;;;;2.40;0.60;;;22.60;99.90;;;;;;5056364;28;20020;-84
2022/01/26 13:12:03;;;;;;;0.60;0.40;;;22.50;99.90;;;;;;5062543;28;20029;-80
2022/01/26 13:14:44;;;;;;;2.08;0.63;;;22.50;99.90;;;;;;5060963;28;20032;-79
2022/01/26 13:17:24;;;;;;;2.13;0.57;;;22.50;99.90;;;;;;5061972;28;20478;-79
2022/01/26 13:20:33;;;;;;;3.90;0.70;;;22.40;99.90;;;;;;5068881;28;20494;-81
2022/01/26 13:25:52;;;;;;;2.17;0.35;;;22.30;99.90;;;;;;5068513;28;20090;-83
2022/01/26 13:28:29;;;;;;;2.67;0.88;;;22.20;99.90;;;;;;5064515;28;20505;-81
2022/01/26 13:36:53;;;;;;;5.15;0.63;;;22.00;99.90;;;;;;5064025;28;20033;-85
2022/01/26 13:42:30;;;;;;;2.80;0.43;;;21.90;99.90;;;;;;5061415;28;20051;-82
2022/01/26 13:50:08;;;;;;;3.20;0.50;;;21.80;99.90;;;;;;5069646;28;20104;-81
2022/01/26 13:52:44;;;;;;;1.52;0.43;;;21.80;99.90;;;;;;5074106;28;20040;-86
2022/01/26 14:00:18;;;;;;;1.00;0.40;;;21.80;99.90;;;;;;5073629;28;20108;-78
2022/01/26 14:02:48;;;;;;;4.63;0.93;;;21.70;99.90;;;;;;5059724;28;20161;-82
2022/01/26 14:05:15;;;;;;;3.45;0.40;;;21.70;99.90;;;;;;5066332;28;20031;-80
2022/01/26 14:07:43;;;;;;;3.28;0.43;;;21.60;99.90;;;;;;5064196;28;20132;-81
2022/01/26 14:10:10;;;;;;;3.60;0.52;;;21.60;99.90;;;;;;5064502;28;20021;-81
2022/01/26 14:12:44;;;;;;;2.88;0.47;;;21.60;99.90;;;;;;5068987;28;20101;-80
2022/01/26 14:15:12;;;;;;;2.65;0.43;;;21.40;99.90;;;;;;5066690;28;20059;-82
2022/01/26 14:17:56;;;;;;;3.22;0.52;;;21.40;99.90;;;;;;5068263;28;20029;-81
2022/01/26 14:23:14;;;;;;;1.13;0.55;;;21.20;99.90;;;;;;5062900;28;20040;-81
2022/01/26 14:25:46;;;;;;;3.35;0.40;;;21.10;99.90;;;;;;5068081;28;20035;-85
2022/01/26 14:28:16;;;;;;;1.25;0.30;;;21.10;99.90;;;;;;5068346;28;20041;-84
2022/01/26 14:33:35;;;;;;;0.95;0.35;;;21.00;99.90;;;;;;5073271;28;20082;-86
2022/01/26 15:09:11;;;;;;;2.73;1.33;;;20.40;99.90;;;;;;5072261;28;20043;-82
2022/01/26 15:34:06;;;;;;;9.73;2.58;;;20.20;99.90;;;;;;5070934;28;20504;-78
2022/01/26 15:42:19;;;;;;;1.88;1.10;;;20.00;99.90;;;;;;5070024;28;20051;-79
2022/01/26 15:44:50;;;;;;;3.13;0.70;;;19.90;99.90;;;;;;5063910;28;20028;-78
2022/01/26 15:53:05;;;;;;;6.25;1.60;;;19.80;99.90;;;;;;5053163;28;20055;-78
2022/01/26 16:06:37;;;;;;;5.30;1.75;;;19.50;99.90;;;;;;5067666;28;20093;-78
2022/01/26 18:16:40;;;;;;;3.35;1.42;;;20.00;99.90;;;;;;5061864;28;20039;-84
2022/01/26 18:33:07;;;;;;;4.95;1.05;;;20.00;99.90;;;;;;5058748;28;20387;-77
2022/01/26 18:46:53;;;;;;;5.30;1.52;;;20.00;99.90;;;;;;5065873;28;20506;-82
2022/01/26 18:49:21;;;;;;;6.55;1.15;;;20.00;99.90;;;;;;5072819;28;20039;-75
2022/01/26 18:51:55;;;;;;;2.72;1.23;;;20.00;99.90;;;;;;5060786;28;20032;-77
2022/01/26 18:54:25;;;;;;;5.07;1.70;;;20.00;99.90;;;;;;5068872;28;20052;-80
2022/01/26 18:56:54;;;;;;;6.22;1.92;;;20.00;99.90;;;;;;5058976;28;20440;-86
2022/01/26 18:59:22;;;;;;;3.75;2.03;;;20.00;99.90;;;;;;5071602;28;20098;-77
2022/01/26 19:01:55;;;;;;;2.80;1.33;;;20.00;99.90;;;;;;5058799;28;20040;-78
2022/01/26 19:04:31;;;;;;;3.53;1.75;;;20.00;99.90;;;;;;5065858;28;20107;-78
2022/01/26 19:06:59;;;;;;;3.05;2.03;;;20.00;99.90;;;;;;5063706;28;20047;-80
2022/01/26 19:09:30;;;;;;;4.10;1.70;;;20.00;99.90;;;;;;5070113;28;20025;-74
2022/01/26 19:11:59;;;;;;;6.85;2.33;;;20.00;99.90;;;;;;5063599;28;20033;-76
2022/01/26 19:14:32;;;;;;;5.85;1.75;;;19.90;99.90;;;;;;5069778;28;20082;-74
2022/01/26 19:17:12;;;;;;;2.45;1.52;;;19.80;99.90;;;;;;5053062;28;20056;-79
2022/01/26 19:25:32;;;;;;;2.90;1.33;;;19.60;99.90;;;;;;5063909;28;20048;-76
2022/01/26 19:39:58;;;;;;;4.57;1.20;;;19.60;99.90;;;;;;5071258;28;20054;-78
2022/01/26 19:52:13;;;;;;;4.65;2.10;;;19.70;99.90;;;;;;5072049;28;20772;-80
2022/01/26 19:54:48;;;;;;;3.78;2.22;;;19.80;99.90;;;;;;5064608;28;20457;-77
2022/01/26 19:57:18;;;;;;;6.60;2.10;;;19.80;99.90;;;;;;5065635;28;20028;-76